sensor_id;sensor_type;location;lat;lon;timestamp;temperature;humidity
73133;DHT22;61320;52.008;4.530;2022-11-20T00:01:14;3.20;74.48
73133;DHT22;61320;52.008;4.530;2022-11-20T00:03:41;3.18;74.46
73133;DHT22;61320;52.008;4.530;2022-11-20T00:06:11;3.18;74.93
73133;DHT22;61320;52.008;4.530;2022-11-20T00:08:37;3.23;76.18
73133;DHT22;61320;52.008;4.530;2022-11-20T00:11:07;3.38;78.01
73133;DHT22;61320;52.008;4.530;2022-11-20T00:13:33;3.44;73.32
73133;DHT22;61320;52.008;4.530;2022-11-20T00:16:01;3.35;74.65
73133;DHT22;61320;52.008;4.530;2022-11-20T00:18:28;3.34;75.33
73133;DHT22;61320;52.008;4.530;2022-11-20T00:21:03;3.31;74.20
73133;DHT22;61320;52.008;4.530;2022-11-20T00:23:29;3.27;74.68
73133;DHT22;61320;52.008;4.530;2022-11-20T00:25:54;3.20;75.14
73133;DHT22;61320;52.008;4.530;2022-11-20T00:28:19;3.18;73.47
73133;DHT22;61320;52.008;4.530;2022-11-20T00:30:45;3.16;73.57
73133;DHT22;61320;52.008;4.530;2022-11-20T00:33:10;3.13;74.82
73133;DHT22;61320;52.008;4.530;2022-11-20T00:35:36;3.13;74.46
73133;DHT22;61320;52.008;4.530;2022-11-20T00:38:01;3.13;74.33
73133;DHT22;61320;52.008;4.530;2022-11-20T00:40:27;3.14;72.78
73133;DHT22;61320;52.008;4.530;2022-11-20T00:42:52;3.03;75.21
73133;DHT22;61320;52.008;4.530;2022-11-20T00:45:18;3.07;75.43
73133;DHT22;61320;52.008;4.530;2022-11-20T00:47:43;3.11;74.97
73133;DHT22;61320;52.008;4.530;2022-11-20T00:50:09;3.10;75.16
73133;DHT22;61320;52.008;4.530;2022-11-20T00:52:34;3.11;75.48
73133;DHT22;61320;52.008;4.530;2022-11-20T00:55:00;3.16;75.33
73133;DHT22;61320;52.008;4.530;2022-11-20T00:57:25;3.23;74.70
73133;DHT22;61320;52.008;4.530;2022-11-20T00:59:51;3.16;74.48
73133;DHT22;61320;52.008;4.530;2022-11-20T01:02:16;3.13;75.25
73133;DHT22;61320;52.008;4.530;2022-11-20T01:04:42;3.16;74.68
73133;DHT22;61320;52.008;4.530;2022-11-20T01:07:07;3.11;74.69
73133;DHT22;61320;52.008;4.530;2022-11-20T01:09:33;3.07;73.70
73133;DHT22;61320;52.008;4.530;2022-11-20T01:11:58;3.03;74.50
73133;DHT22;61320;52.008;4.530;2022-11-20T01:14:27;2.97;75.06
73133;DHT22;61320;52.008;4.530;2022-11-20T01:16:52;2.96;75.23
73133;DHT22;61320;52.008;4.530;2022-11-20T01:19:21;2.96;76.13
73133;DHT22;61320;52.008;4.530;2022-11-20T01:21:52;2.96;75.76
73133;DHT22;61320;52.008;4.530;2022-11-20T01:24:20;2.93;74.76
73133;DHT22;61320;52.008;4.530;2022-11-20T01:26:49;2.93;74.84
73133;DHT22;61320;52.008;4.530;2022-11-20T01:29:23;3.01;75.72
73133;DHT22;61320;52.008;4.530;2022-11-20T01:31:49;3.01;74.62
73133;DHT22;61320;52.008;4.530;2022-11-20T01:34:18;2.95;73.99
73133;DHT22;61320;52.008;4.530;2022-11-20T01:36:44;2.95;74.56
73133;DHT22;61320;52.008;4.530;2022-11-20T01:39:18;2.97;75.97
73133;DHT22;61320;52.008;4.530;2022-11-20T01:41:47;3.00;75.78
73133;DHT22;61320;52.008;4.530;2022-11-20T01:47:59;3.01;75.91
73133;DHT22;61320;52.008;4.530;2022-11-20T01:50:30;3.03;74.88
73133;DHT22;61320;52.008;4.530;2022-11-20T01:53:11;3.06;75.02
73133;DHT22;61320;52.008;4.530;2022-11-20T01:55:48;3.04;75.02
73133;DHT22;61320;52.008;4.530;2022-11-20T01:58:15;2.97;74.34
73133;DHT22;61320;52.008;4.530;2022-11-20T02:00:41;2.97;75.81
73133;DHT22;61320;52.008;4.530;2022-11-20T02:03:12;3.00;76.90
73133;DHT22;61320;52.008;4.530;2022-11-20T02:05:55;3.01;74.38
73133;DHT22;61320;52.008;4.530;2022-11-20T02:08:21;2.96;75.01
73133;DHT22;61320;52.008;4.530;2022-11-20T02:10:48;2.97;75.48
73133;DHT22;61320;52.008;4.530;2022-11-20T02:13:13;2.87;74.66
73133;DHT22;61320;52.008;4.530;2022-11-20T02:15:57;2.92;77.56
73133;DHT22;61320;52.008;4.530;2022-11-20T02:18:24;2.89;76.40
73133;DHT22;61320;52.008;4.530;2022-11-20T02:21:01;2.95;73.70
73133;DHT22;61320;52.008;4.530;2022-11-20T02:23:53;2.90;76.24
73133;DHT22;61320;52.008;4.530;2022-11-20T02:26:21;2.93;73.62
73133;DHT22;61320;52.008;4.530;2022-11-20T02:28:48;2.95;74.33
73133;DHT22;61320;52.008;4.530;2022-11-20T02:31:14;2.89;74.90
73133;DHT22;61320;52.008;4.530;2022-11-20T02:33:40;2.95;75.72
73133;DHT22;61320;52.008;4.530;2022-11-20T02:36:11;2.97;75.71
73133;DHT22;61320;52.008;4.530;2022-11-20T02:38:39;3.04;75.43
73133;DHT22;61320;52.008;4.530;2022-11-20T02:41:07;3.03;75.60
73133;DHT22;61320;52.008;4.530;2022-11-20T02:43:33;2.97;73.93
73133;DHT22;61320;52.008;4.530;2022-11-20T02:45:58;2.90;74.12
73133;DHT22;61320;52.008;4.530;2022-11-20T02:48:24;2.87;74.02
73133;DHT22;61320;52.008;4.530;2022-11-20T02:50:49;2.83;74.92
73133;DHT22;61320;52.008;4.530;2022-11-20T02:53:15;2.86;74.52
73133;DHT22;61320;52.008;4.530;2022-11-20T02:55:40;2.77;74.04
73133;DHT22;61320;52.008;4.530;2022-11-20T02:58:06;2.79;75.04
73133;DHT22;61320;52.008;4.530;2022-11-20T03:00:34;2.71;74.36
73133;DHT22;61320;52.008;4.530;2022-11-20T03:03:01;2.72;76.51
73133;DHT22;61320;52.008;4.530;2022-11-20T03:05:26;2.77;75.30
73133;DHT22;61320;52.008;4.530;2022-11-20T03:07:52;2.80;73.61
73133;DHT22;61320;52.008;4.530;2022-11-20T03:10:17;2.82;76.35
73133;DHT22;61320;52.008;4.530;2022-11-20T03:12:43;2.86;74.91
73133;DHT22;61320;52.008;4.530;2022-11-20T03:15:09;2.85;75.89
73133;DHT22;61320;52.008;4.530;2022-11-20T03:17:34;2.86;75.16
73133;DHT22;61320;52.008;4.530;2022-11-20T03:20:00;2.82;74.16
73133;DHT22;61320;52.008;4.530;2022-11-20T03:22:25;2.65;72.82
73133;DHT22;61320;52.008;4.530;2022-11-20T03:24:53;2.60;77.23
73133;DHT22;61320;52.008;4.530;2022-11-20T03:27:19;2.69;77.00
73133;DHT22;61320;52.008;4.530;2022-11-20T03:29:45;2.75;75.71
73133;DHT22;61320;52.008;4.530;2022-11-20T03:32:10;2.75;75.48
73133;DHT22;61320;52.008;4.530;2022-11-20T03:34:36;2.77;74.89
73133;DHT22;61320;52.008;4.530;2022-11-20T03:37:01;2.75;73.83
73133;DHT22;61320;52.008;4.530;2022-11-20T03:39:27;2.75;75.02
73133;DHT22;61320;52.008;4.530;2022-11-20T03:41:52;2.73;74.87
73133;DHT22;61320;52.008;4.530;2022-11-20T03:44:21;2.79;76.80
73133;DHT22;61320;52.008;4.530;2022-11-20T03:46:46;2.89;75.45
73133;DHT22;61320;52.008;4.530;2022-11-20T03:49:12;2.89;74.91
73133;DHT22;61320;52.008;4.530;2022-11-20T03:51:37;2.87;73.57
73133;DHT22;61320;52.008;4.530;2022-11-20T03:54:06;2.82;72.82
73133;DHT22;61320;52.008;4.530;2022-11-20T03:56:35;2.80;76.86
73133;DHT22;61320;52.008;4.530;2022-11-20T03:59:00;2.77;75.88
73133;DHT22;61320;52.008;4.530;2022-11-20T04:01:32;2.82;75.81
73133;DHT22;61320;52.008;4.530;2022-11-20T04:03:58;2.83;76.53
73133;DHT22;61320;52.008;4.530;2022-11-20T04:06:29;2.93;76.69
73133;DHT22;61320;52.008;4.530;2022-11-20T04:08:57;2.95;75.03
73133;DHT22;61320;52.008;4.530;2022-11-20T04:11:25;2.90;74.17
73133;DHT22;61320;52.008;4.530;2022-11-20T04:14:04;2.86;75.52
73133;DHT22;61320;52.008;4.530;2022-11-20T04:16:32;2.85;73.71
73133;DHT22;61320;52.008;4.530;2022-11-20T04:19:00;2.85;75.09
73133;DHT22;61320;52.008;4.530;2022-11-20T04:21:26;2.80;75.14
73133;DHT22;61320;52.008;4.530;2022-11-20T04:23:53;2.87;74.98
73133;DHT22;61320;52.008;4.530;2022-11-20T04:26:24;2.92;76.97
73133;DHT22;61320;52.008;4.530;2022-11-20T04:28:53;2.97;76.82
73133;DHT22;61320;52.008;4.530;2022-11-20T04:31:25;3.00;75.99
73133;DHT22;61320;52.008;4.530;2022-11-20T04:33:53;2.93;75.16
73133;DHT22;61320;52.008;4.530;2022-11-20T04:36:25;2.90;74.16
73133;DHT22;61320;52.008;4.530;2022-11-20T04:38:59;2.87;78.35
73133;DHT22;61320;52.008;4.530;2022-11-20T04:41:28;3.01;77.61
73133;DHT22;61320;52.008;4.530;2022-11-20T04:43:56;3.03;75.84
73133;DHT22;61320;52.008;4.530;2022-11-20T04:46:26;2.93;74.61
73133;DHT22;61320;52.008;4.530;2022-11-20T04:48:52;2.93;76.04
73133;DHT22;61320;52.008;4.530;2022-11-20T04:51:17;3.00;76.08
73133;DHT22;61320;52.008;4.530;2022-11-20T04:53:43;3.00;76.04
73133;DHT22;61320;52.008;4.530;2022-11-20T04:56:11;3.00;76.12
73133;DHT22;61320;52.008;4.530;2022-11-20T04:58:37;2.97;77.00
73133;DHT22;61320;52.008;4.530;2022-11-20T05:01:06;3.04;75.45
73133;DHT22;61320;52.008;4.530;2022-11-20T05:03:32;3.04;75.67
73133;DHT22;61320;52.008;4.530;2022-11-20T05:06:02;3.00;75.85
73133;DHT22;61320;52.008;4.530;2022-11-20T05:08:28;3.04;76.13
73133;DHT22;61320;52.008;4.530;2022-11-20T05:10:53;3.04;75.96
73133;DHT22;61320;52.008;4.530;2022-11-20T05:13:19;3.04;75.51
73133;DHT22;61320;52.008;4.530;2022-11-20T05:15:44;2.99;74.75
73133;DHT22;61320;52.008;4.530;2022-11-20T05:18:10;3.01;77.11
73133;DHT22;61320;52.008;4.530;2022-11-20T05:20:35;3.00;75.18
73133;DHT22;61320;52.008;4.530;2022-11-20T05:23:02;2.97;76.57
73133;DHT22;61320;52.008;4.530;2022-11-20T05:25:27;2.97;74.59
73133;DHT22;61320;52.008;4.530;2022-11-20T05:27:53;2.82;73.52
73133;DHT22;61320;52.008;4.530;2022-11-20T05:30:19;2.73;75.66
73133;DHT22;61320;52.008;4.530;2022-11-20T05:32:44;2.79;76.71
73133;DHT22;61320;52.008;4.530;2022-11-20T05:35:10;2.90;77.76
73133;DHT22;61320;52.008;4.530;2022-11-20T05:37:35;2.99;76.84
73133;DHT22;61320;52.008;4.530;2022-11-20T05:40:01;2.96;76.07
73133;DHT22;61320;52.008;4.530;2022-11-20T05:42:30;2.97;76.28
73133;DHT22;61320;52.008;4.530;2022-11-20T05:44:59;3.00;75.41
73133;DHT22;61320;52.008;4.530;2022-11-20T05:47:27;2.97;76.04
73133;DHT22;61320;52.008;4.530;2022-11-20T05:49:52;3.03;76.04
73133;DHT22;61320;52.008;4.530;2022-11-20T05:52:18;3.08;77.61
73133;DHT22;61320;52.008;4.530;2022-11-20T05:54:44;3.07;77.16
73133;DHT22;61320;52.008;4.530;2022-11-20T05:57:09;3.14;79.80
73133;DHT22;61320;52.008;4.530;2022-11-20T05:59:35;3.17;76.39
73133;DHT22;61320;52.008;4.530;2022-11-20T06:02:00;3.20;77.38
73133;DHT22;61320;52.008;4.530;2022-11-20T06:04:26;3.21;76.69
73133;DHT22;61320;52.008;4.530;2022-11-20T06:06:51;3.21;77.85
73133;DHT22;61320;52.008;4.530;2022-11-20T06:09:16;3.20;76.80
73133;DHT22;61320;52.008;4.530;2022-11-20T06:11:42;3.14;74.82
73133;DHT22;61320;52.008;4.530;2022-11-20T06:14:07;3.16;78.50
73133;DHT22;61320;52.008;4.530;2022-11-20T06:16:33;3.27;78.36
73133;DHT22;61320;52.008;4.530;2022-11-20T06:18:58;3.37;79.31
73133;DHT22;61320;52.008;4.530;2022-11-20T06:21:24;3.39;78.42
73133;DHT22;61320;52.008;4.530;2022-11-20T06:23:52;3.39;76.13
73133;DHT22;61320;52.008;4.530;2022-11-20T06:26:23;3.38;76.28
73133;DHT22;61320;52.008;4.530;2022-11-20T06:28:50;3.39;77.34
73133;DHT22;61320;52.008;4.530;2022-11-20T06:31:19;3.41;76.57
73133;DHT22;61320;52.008;4.530;2022-11-20T06:33:46;3.46;77.24
73133;DHT22;61320;52.008;4.530;2022-11-20T06:36:14;3.48;78.58
73133;DHT22;61320;52.008;4.530;2022-11-20T06:38:40;3.51;76.71
73133;DHT22;61320;52.008;4.530;2022-11-20T06:41:08;3.56;78.85
73133;DHT22;61320;52.008;4.530;2022-11-20T06:43:35;3.56;76.96
73133;DHT22;61320;52.008;4.530;2022-11-20T06:46:00;3.58;78.46
73133;DHT22;61320;52.008;4.530;2022-11-20T06:48:27;3.55;75.73
73133;DHT22;61320;52.008;4.530;2022-11-20T06:50:53;3.52;78.44
73133;DHT22;61320;52.008;4.530;2022-11-20T06:53:19;3.56;77.44
73133;DHT22;61320;52.008;4.530;2022-11-20T06:55:46;3.56;77.90
73133;DHT22;61320;52.008;4.530;2022-11-20T06:58:13;3.62;77.58
73133;DHT22;61320;52.008;4.530;2022-11-20T07:00:39;3.61;77.69
73133;DHT22;61320;52.008;4.530;2022-11-20T07:03:06;3.75;79.67
73133;DHT22;61320;52.008;4.530;2022-11-20T07:05:33;3.82;78.16
73133;DHT22;61320;52.008;4.530;2022-11-20T07:07:58;3.76;78.52
73133;DHT22;61320;52.008;4.530;2022-11-20T07:10:27;3.83;77.21
73133;DHT22;61320;52.008;4.530;2022-11-20T07:12:53;3.87;78.88
73133;DHT22;61320;52.008;4.530;2022-11-20T07:15:21;3.95;77.40
73133;DHT22;61320;52.008;4.530;2022-11-20T07:17:47;3.95;78.52
73133;DHT22;61320;52.008;4.530;2022-11-20T07:20:13;4.00;76.75
73133;DHT22;61320;52.008;4.530;2022-11-20T07:22:39;4.02;77.82
73133;DHT22;61320;52.008;4.530;2022-11-20T07:25:05;4.10;78.90
73133;DHT22;61320;52.008;4.530;2022-11-20T07:27:31;4.18;76.76
73133;DHT22;61320;52.008;4.530;2022-11-20T07:29:57;4.14;77.61
73133;DHT22;61320;52.008;4.530;2022-11-20T07:32:23;4.18;78.48
73133;DHT22;61320;52.008;4.530;2022-11-20T07:34:48;4.23;78.14
73133;DHT22;61320;52.008;4.530;2022-11-20T07:37:15;4.29;78.04
73133;DHT22;61320;52.008;4.530;2022-11-20T07:39:40;4.30;78.27
73133;DHT22;61320;52.008;4.530;2022-11-20T07:42:06;4.36;77.91
73133;DHT22;61320;52.008;4.530;2022-11-20T07:44:32;4.34;77.00
73133;DHT22;61320;52.008;4.530;2022-11-20T07:46:58;4.37;78.66
73133;DHT22;61320;52.008;4.530;2022-11-20T07:49:23;4.41;78.46
73133;DHT22;61320;52.008;4.530;2022-11-20T07:51:52;4.47;77.81
73133;DHT22;61320;52.008;4.530;2022-11-20T07:54:21;4.44;75.95
73133;DHT22;61320;52.008;4.530;2022-11-20T07:56:52;4.36;76.72
73133;DHT22;61320;52.008;4.530;2022-11-20T07:59:19;4.34;76.54
73133;DHT22;61320;52.008;4.530;2022-11-20T08:01:44;4.29;75.37
73133;DHT22;61320;52.008;4.530;2022-11-20T08:04:10;4.29;77.56
73133;DHT22;61320;52.008;4.530;2022-11-20T08:06:36;4.34;77.60
73133;DHT22;61320;52.008;4.530;2022-11-20T08:09:02;4.44;78.22
73133;DHT22;61320;52.008;4.530;2022-11-20T08:11:28;4.53;78.67
73133;DHT22;61320;52.008;4.530;2022-11-20T08:14:12;4.60;78.12
73133;DHT22;61320;52.008;4.530;2022-11-20T08:16:42;4.62;78.74
73133;DHT22;61320;52.008;4.530;2022-11-20T08:19:08;4.71;76.79
73133;DHT22;61320;52.008;4.530;2022-11-20T08:21:34;4.74;76.99
73133;DHT22;61320;52.008;4.530;2022-11-20T08:23:59;4.75;77.91
73133;DHT22;61320;52.008;4.530;2022-11-20T08:26:25;4.84;77.43
73133;DHT22;61320;52.008;4.530;2022-11-20T08:28:58;4.84;77.14
73133;DHT22;61320;52.008;4.530;2022-11-20T08:31:26;4.89;77.94
73133;DHT22;61320;52.008;4.530;2022-11-20T08:33:52;4.91;78.77
73133;DHT22;61320;52.008;4.530;2022-11-20T08:36:18;4.97;77.38
73133;DHT22;61320;52.008;4.530;2022-11-20T08:38:48;4.97;77.63
73133;DHT22;61320;52.008;4.530;2022-11-20T08:41:14;5.02;77.44
73133;DHT22;61320;52.008;4.530;2022-11-20T08:44:02;5.06;77.23
73133;DHT22;61320;52.008;4.530;2022-11-20T08:49:08;5.15;77.54
73133;DHT22;61320;52.008;4.530;2022-11-20T08:51:35;5.18;77.39
73133;DHT22;61320;52.008;4.530;2022-11-20T08:54:01;5.20;77.65
73133;DHT22;61320;52.008;4.530;2022-11-20T08:56:27;5.24;77.58
73133;DHT22;61320;52.008;4.530;2022-11-20T08:58:53;5.29;77.98
73133;DHT22;61320;52.008;4.530;2022-11-20T09:01:20;5.34;76.64
73133;DHT22;61320;52.008;4.530;2022-11-20T09:03:46;5.33;76.27
73133;DHT22;61320;52.008;4.530;2022-11-20T09:06:11;5.32;76.45
73133;DHT22;61320;52.008;4.530;2022-11-20T09:08:37;5.37;76.49
73133;DHT22;61320;52.008;4.530;2022-11-20T09:11:03;5.43;77.31
73133;DHT22;61320;52.008;4.530;2022-11-20T09:13:30;5.43;77.27
73133;DHT22;61320;52.008;4.530;2022-11-20T09:15:59;5.44;76.54
73133;DHT22;61320;52.008;4.530;2022-11-20T09:18:26;5.48;77.55
73133;DHT22;61320;52.008;4.530;2022-11-20T09:20:51;5.50;77.76
73133;DHT22;61320;52.008;4.530;2022-11-20T09:23:20;5.55;77.29
73133;DHT22;61320;52.008;4.530;2022-11-20T09:25:46;5.63;76.22
73133;DHT22;61320;52.008;4.530;2022-11-20T09:28:14;5.63;77.35
73133;DHT22;61320;52.008;4.530;2022-11-20T09:30:39;5.65;77.58
73133;DHT22;61320;52.008;4.530;2022-11-20T09:33:06;5.74;77.10
73133;DHT22;61320;52.008;4.530;2022-11-20T09:35:32;5.81;76.61
73133;DHT22;61320;52.008;4.530;2022-11-20T09:37:57;5.85;76.07
73133;DHT22;61320;52.008;4.530;2022-11-20T09:40:26;5.84;76.80
73133;DHT22;61320;52.008;4.530;2022-11-20T09:56:46;5.87;77.17
73133;DHT22;61320;52.008;4.530;2022-11-20T09:59:44;5.90;76.49
73133;DHT22;61320;52.008;4.530;2022-11-20T10:04:59;5.94;75.84
73133;DHT22;61320;52.008;4.530;2022-11-20T10:10:39;5.92;77.44
73133;DHT22;61320;52.008;4.530;2022-11-20T10:24:29;5.99;76.19
73133;DHT22;61320;52.008;4.530;2022-11-20T10:27:03;6.06;76.63
73133;DHT22;61320;52.008;4.530;2022-11-20T10:29:38;6.08;77.19
73133;DHT22;61320;52.008;4.530;2022-11-20T10:32:19;6.08;76.72
73133;DHT22;61320;52.008;4.530;2022-11-20T10:35:16;6.09;77.17
73133;DHT22;61320;52.008;4.530;2022-11-20T10:37:57;6.09;77.42
73133;DHT22;61320;52.008;4.530;2022-11-20T10:40:38;6.05;78.21
73133;DHT22;61320;52.008;4.530;2022-11-20T10:43:17;6.08;78.58
73133;DHT22;61320;52.008;4.530;2022-11-20T10:45:55;6.06;77.86
73133;DHT22;61320;52.008;4.530;2022-11-20T10:48:25;6.05;78.04
73133;DHT22;61320;52.008;4.530;2022-11-20T10:53:57;6.06;78.92
73133;DHT22;61320;52.008;4.530;2022-11-20T10:59:08;6.16;78.70
73133;DHT22;61320;52.008;4.530;2022-11-20T11:01:42;6.23;77.93
73133;DHT22;61320;52.008;4.530;2022-11-20T11:06:48;6.26;77.33
73133;DHT22;61320;52.008;4.530;2022-11-20T11:09:24;6.29;77.81
73133;DHT22;61320;52.008;4.530;2022-11-20T11:11:52;6.30;78.04
73133;DHT22;61320;52.008;4.530;2022-11-20T11:14:17;6.34;78.22
73133;DHT22;61320;52.008;4.530;2022-11-20T11:16:55;6.32;78.15
73133;DHT22;61320;52.008;4.530;2022-11-20T11:19:24;6.29;78.81
73133;DHT22;61320;52.008;4.530;2022-11-20T11:22:16;6.36;78.30
73133;DHT22;61320;52.008;4.530;2022-11-20T11:28:22;6.40;77.47
73133;DHT22;61320;52.008;4.530;2022-11-20T11:30:53;6.42;77.67
73133;DHT22;61320;52.008;4.530;2022-11-20T11:33:25;6.40;76.47
73133;DHT22;61320;52.008;4.530;2022-11-20T11:35:54;6.36;78.18
73133;DHT22;61320;52.008;4.530;2022-11-20T11:38:36;6.37;78.47
73133;DHT22;61320;52.008;4.530;2022-11-20T11:41:05;6.44;78.03
73133;DHT22;61320;52.008;4.530;2022-11-20T11:43:34;6.49;77.78
73133;DHT22;61320;52.008;4.530;2022-11-20T11:46:29;6.49;77.27
73133;DHT22;61320;52.008;4.530;2022-11-20T11:54:20;6.57;77.38
73133;DHT22;61320;52.008;4.530;2022-11-20T11:56:51;6.57;78.47
73133;DHT22;61320;52.008;4.530;2022-11-20T11:59:53;6.64;77.50
73133;DHT22;61320;52.008;4.530;2022-11-20T12:02:29;6.69;78.19
73133;DHT22;61320;52.008;4.530;2022-11-20T12:05:05;6.69;77.99
73133;DHT22;61320;52.008;4.530;2022-11-20T12:07:42;6.69;78.57
73133;DHT22;61320;52.008;4.530;2022-11-20T12:10:42;6.70;78.03
73133;DHT22;61320;52.008;4.530;2022-11-20T12:16:04;6.73;78.07
73133;DHT22;61320;52.008;4.530;2022-11-20T12:18:30;6.76;77.34
73133;DHT22;61320;52.008;4.530;2022-11-20T12:24:02;6.74;77.63
73133;DHT22;61320;52.008;4.530;2022-11-20T12:29:32;6.76;78.49
73133;DHT22;61320;52.008;4.530;2022-11-20T12:37:55;6.76;77.89
73133;DHT22;61320;52.008;4.530;2022-11-20T12:43:29;6.77;79.06
73133;DHT22;61320;52.008;4.530;2022-11-20T12:46:17;6.81;78.16
73133;DHT22;61320;52.008;4.530;2022-11-20T12:49:13;6.80;78.77
73133;DHT22;61320;52.008;4.530;2022-11-20T12:52:37;6.80;78.78
73133;DHT22;61320;52.008;4.530;2022-11-20T12:58:37;6.90;78.49
73133;DHT22;61320;52.008;4.530;2022-11-20T13:03:53;6.98;78.49
73133;DHT22;61320;52.008;4.530;2022-11-20T13:06:21;6.97;77.86
73133;DHT22;61320;52.008;4.530;2022-11-20T13:08:54;6.90;79.16
73133;DHT22;61320;52.008;4.530;2022-11-20T13:19:16;7.00;79.59
73133;DHT22;61320;52.008;4.530;2022-11-20T13:21:45;7.00;79.33
73133;DHT22;61320;52.008;4.530;2022-11-20T13:24:22;6.95;79.71
73133;DHT22;61320;52.008;4.530;2022-11-20T13:29:36;6.95;79.61
73133;DHT22;61320;52.008;4.530;2022-11-20T13:32:22;6.88;79.72
73133;DHT22;61320;52.008;4.530;2022-11-20T13:34:56;6.88;80.65
73133;DHT22;61320;52.008;4.530;2022-11-20T13:37:36;6.87;80.50
73133;DHT22;61320;52.008;4.530;2022-11-20T13:40:22;6.90;80.61
73133;DHT22;61320;52.008;4.530;2022-11-20T13:45:31;6.79;81.90
73133;DHT22;61320;52.008;4.530;2022-11-20T13:48:03;6.81;81.55
73133;DHT22;61320;52.008;4.530;2022-11-20T13:50:49;6.80;81.73
73133;DHT22;61320;52.008;4.530;2022-11-20T13:56:19;6.67;82.24
73133;DHT22;61320;52.008;4.530;2022-11-20T13:59:06;6.64;82.35
73133;DHT22;61320;52.008;4.530;2022-11-20T14:01:33;6.60;82.63
73133;DHT22;61320;52.008;4.530;2022-11-20T14:04:15;6.58;82.90
73133;DHT22;61320;52.008;4.530;2022-11-20T14:06:48;6.57;83.34
73133;DHT22;61320;52.008;4.530;2022-11-20T14:09:33;6.56;83.67
73133;DHT22;61320;52.008;4.530;2022-11-20T14:12:03;6.58;83.33
73133;DHT22;61320;52.008;4.530;2022-11-20T14:14:32;6.57;83.71
73133;DHT22;61320;52.008;4.530;2022-11-20T14:17:18;6.58;83.66
73133;DHT22;61320;52.008;4.530;2022-11-20T14:19:46;6.60;84.06
73133;DHT22;61320;52.008;4.530;2022-11-20T14:22:19;6.57;83.42
73133;DHT22;61320;52.008;4.530;2022-11-20T14:24:46;6.56;83.75
73133;DHT22;61320;52.008;4.530;2022-11-20T14:27:17;6.58;84.07
73133;DHT22;61320;52.008;4.530;2022-11-20T14:29:46;6.64;84.10
73133;DHT22;61320;52.008;4.530;2022-11-20T14:32:23;6.67;83.87
73133;DHT22;61320;52.008;4.530;2022-11-20T14:35:28;6.73;83.57
73133;DHT22;61320;52.008;4.530;2022-11-20T14:37:58;6.70;83.67
73133;DHT22;61320;52.008;4.530;2022-11-20T14:40:50;6.67;83.96
73133;DHT22;61320;52.008;4.530;2022-11-20T14:43:30;6.71;83.99
73133;DHT22;61320;52.008;4.530;2022-11-20T14:46:10;6.74;83.94
73133;DHT22;61320;52.008;4.530;2022-11-20T14:48:46;6.74;83.41
73133;DHT22;61320;52.008;4.530;2022-11-20T14:51:35;6.67;84.24
73133;DHT22;61320;52.008;4.530;2022-11-20T14:54:14;6.69;84.23
73133;DHT22;61320;52.008;4.530;2022-11-20T14:56:42;6.67;84.05
73133;DHT22;61320;52.008;4.530;2022-11-20T14:59:09;6.69;83.97
73133;DHT22;61320;52.008;4.530;2022-11-20T15:01:35;6.67;84.22
73133;DHT22;61320;52.008;4.530;2022-11-20T15:04:17;6.71;84.50
73133;DHT22;61320;52.008;4.530;2022-11-20T15:06:59;6.74;84.03
73133;DHT22;61320;52.008;4.530;2022-11-20T15:12:28;6.81;84.37
73133;DHT22;61320;52.008;4.530;2022-11-20T15:15:12;6.84;84.11
73133;DHT22;61320;52.008;4.530;2022-11-20T15:17:43;6.87;84.43
73133;DHT22;61320;52.008;4.530;2022-11-20T15:20:35;6.91;83.85
73133;DHT22;61320;52.008;4.530;2022-11-20T15:23:22;6.91;83.68
73133;DHT22;61320;52.008;4.530;2022-11-20T15:25:51;6.90;83.49
73133;DHT22;61320;52.008;4.530;2022-11-20T15:28:47;6.91;83.95
73133;DHT22;61320;52.008;4.530;2022-11-20T15:31:18;6.97;83.83
73133;DHT22;61320;52.008;4.530;2022-11-20T15:33:45;6.95;83.77
73133;DHT22;61320;52.008;4.530;2022-11-20T15:36:22;7.00;83.62
73133;DHT22;61320;52.008;4.530;2022-11-20T15:38:53;7.05;83.47
73133;DHT22;61320;52.008;4.530;2022-11-20T15:41:21;7.02;83.39
73133;DHT22;61320;52.008;4.530;2022-11-20T15:43:47;6.98;83.43
73133;DHT22;61320;52.008;4.530;2022-11-20T15:46:16;6.92;83.62
73133;DHT22;61320;52.008;4.530;2022-11-20T15:56:33;7.04;84.29
73133;DHT22;61320;52.008;4.530;2022-11-20T16:03:02;7.11;83.93
73133;DHT22;61320;52.008;4.530;2022-11-20T16:05:35;7.14;83.99
73133;DHT22;61320;52.008;4.530;2022-11-20T16:08:30;7.16;83.80
73133;DHT22;61320;52.008;4.530;2022-11-20T16:10:58;7.16;83.80
73133;DHT22;61320;52.008;4.530;2022-11-20T16:13:33;7.11;83.54
73133;DHT22;61320;52.008;4.530;2022-11-20T16:16:32;7.11;83.79
73133;DHT22;61320;52.008;4.530;2022-11-20T16:19:15;7.09;84.08
73133;DHT22;61320;52.008;4.530;2022-11-20T16:21:42;7.15;83.77
73133;DHT22;61320;52.008;4.530;2022-11-20T16:24:28;7.16;83.59
73133;DHT22;61320;52.008;4.530;2022-11-20T16:26:54;7.15;84.08
73133;DHT22;61320;52.008;4.530;2022-11-20T16:29:29;7.16;83.68
73133;DHT22;61320;52.008;4.530;2022-11-20T16:32:00;7.16;84.24
73133;DHT22;61320;52.008;4.530;2022-11-20T16:34:31;7.12;83.78
73133;DHT22;61320;52.008;4.530;2022-11-20T16:36:56;7.15;84.17
73133;DHT22;61320;52.008;4.530;2022-11-20T16:39:24;7.18;84.32
73133;DHT22;61320;52.008;4.530;2022-11-20T16:41:50;7.22;84.38
73133;DHT22;61320;52.008;4.530;2022-11-20T16:44:16;7.25;83.96
73133;DHT22;61320;52.008;4.530;2022-11-20T16:46:41;7.19;83.77
73133;DHT22;61320;52.008;4.530;2022-11-20T16:49:12;7.23;84.10
73133;DHT22;61320;52.008;4.530;2022-11-20T16:51:37;7.25;84.18
73133;DHT22;61320;52.008;4.530;2022-11-20T16:54:05;7.28;84.03
73133;DHT22;61320;52.008;4.530;2022-11-20T16:56:31;7.29;83.95
73133;DHT22;61320;52.008;4.530;2022-11-20T16:58:59;7.28;83.94
73133;DHT22;61320;52.008;4.530;2022-11-20T17:01:33;7.28;84.20
73133;DHT22;61320;52.008;4.530;2022-11-20T17:08:02;7.31;83.67
73133;DHT22;61320;52.008;4.530;2022-11-20T17:10:36;7.33;84.14
73133;DHT22;61320;52.008;4.530;2022-11-20T17:13:09;7.42;83.88
73133;DHT22;61320;52.008;4.530;2022-11-20T17:15:46;7.49;83.76
73133;DHT22;61320;52.008;4.530;2022-11-20T17:18:15;7.50;82.70
73133;DHT22;61320;52.008;4.530;2022-11-20T17:21:03;7.43;83.52
73133;DHT22;61320;52.008;4.530;2022-11-20T17:23:34;7.39;83.56
73133;DHT22;61320;52.008;4.530;2022-11-20T17:26:01;7.39;83.69
73133;DHT22;61320;52.008;4.530;2022-11-20T17:28:38;7.38;83.60
73133;DHT22;61320;52.008;4.530;2022-11-20T17:31:21;7.39;83.83
73133;DHT22;61320;52.008;4.530;2022-11-20T17:33:47;7.42;83.90
73133;DHT22;61320;52.008;4.530;2022-11-20T17:36:17;7.45;83.90
73133;DHT22;61320;52.008;4.530;2022-11-20T17:38:46;7.50;83.88
73133;DHT22;61320;52.008;4.530;2022-11-20T17:41:16;7.50;83.68
73133;DHT22;61320;52.008;4.530;2022-11-20T17:47:07;7.52;83.96
73133;DHT22;61320;52.008;4.530;2022-11-20T17:49:32;7.55;83.74
73133;DHT22;61320;52.008;4.530;2022-11-20T17:51:58;7.53;83.50
73133;DHT22;61320;52.008;4.530;2022-11-20T18:04:29;7.63;83.48
73133;DHT22;61320;52.008;4.530;2022-11-20T18:06:54;7.60;83.53
73133;DHT22;61320;52.008;4.530;2022-11-20T18:09:20;7.63;83.51
73133;DHT22;61320;52.008;4.530;2022-11-20T18:11:45;7.60;83.02